createdAt,value
2019-03-05T00:00:28.760Z,0
2019-03-05T00:01:09.375Z,0
2019-03-05T00:01:49.924Z,0
2019-03-05T00:02:30.509Z,0
2019-03-05T00:03:11.056Z,0
2019-03-05T00:03:51.612Z,0
2019-03-05T00:04:32.173Z,0
2019-03-05T00:05:12.753Z,0
2019-03-05T00:05:53.332Z,0
2019-03-05T00:06:33.897Z,0
2019-03-05T00:07:14.485Z,0
2019-03-05T00:07:55.131Z,0
2019-03-05T00:08:35.683Z,0
2019-03-05T00:09:16.234Z,0
2019-03-05T00:09:56.785Z,0
2019-03-05T00:10:37.391Z,0
2019-03-05T00:11:18.002Z,0
2019-03-05T00:11:58.558Z,0
2019-03-05T00:12:39.144Z,0
2019-03-05T00:13:19.698Z,0
2019-03-05T00:14:00.258Z,0
2019-03-05T00:14:40.824Z,0
2019-03-05T00:15:21.391Z,0
2019-03-05T00:16:01.972Z,0
2019-03-05T00:16:42.535Z,0
2019-03-05T00:17:23.141Z,0
2019-03-05T00:18:03.688Z,0
2019-03-05T00:18:44.288Z,0
2019-03-05T00:19:24.839Z,0
2019-03-05T00:20:05.418Z,0
2019-03-05T00:20:45.995Z,0
2019-03-05T00:21:26.548Z,0
2019-03-05T00:22:07.134Z,0
2019-03-05T00:22:47.726Z,0
2019-03-05T00:23:28.274Z,0
2019-03-05T00:24:08.837Z,0
2019-03-05T00:24:49.409Z,0
2019-03-05T00:25:29.959Z,0
2019-03-05T00:26:10.540Z,0
2019-03-05T00:26:51.088Z,0
2019-03-05T00:27:31.669Z,0
2019-03-05T00:28:12.227Z,0
2019-03-05T00:28:52.826Z,0
2019-03-05T00:29:33.415Z,0
2019-03-05T00:30:14.008Z,0
2019-03-05T00:30:54.570Z,0
2019-03-05T00:31:35.164Z,0
2019-03-05T00:32:15.711Z,0
2019-03-05T00:32:56.281Z,0
2019-03-05T00:33:36.838Z,0
2019-03-05T00:34:17.410Z,0
2019-03-05T00:34:57.966Z,0
2019-03-05T00:35:38.531Z,0
2019-03-05T00:36:19.082Z,0
2019-03-05T00:36:59.652Z,0
2019-03-05T00:37:40.207Z,0
2019-03-05T00:38:20.768Z,0
2019-03-05T00:39:01.348Z,0
2019-03-05T00:39:41.910Z,0
2019-03-05T00:40:22.489Z,0
2019-03-05T00:41:03.059Z,0
2019-03-05T00:41:43.610Z,0
2019-03-05T00:42:24.166Z,0
2019-03-05T00:43:04.713Z,0
2019-03-05T00:43:45.265Z,0
2019-03-05T00:44:25.848Z,0
2019-03-05T00:45:06.431Z,0
2019-03-05T00:45:46.987Z,0
2019-03-05T00:46:27.565Z,0
2019-03-05T00:47:08.125Z,0
2019-03-05T00:47:48.703Z,0
2019-03-05T00:48:29.261Z,0
2019-03-05T00:49:09.848Z,0
2019-03-05T00:49:50.433Z,0
2019-03-05T00:50:31.020Z,0
2019-03-05T00:51:11.588Z,0
2019-03-05T00:51:52.159Z,0
2019-03-05T00:52:32.700Z,0
2019-03-05T00:53:13.279Z,0
2019-03-05T00:53:53.845Z,0
2019-03-05T00:54:34.404Z,0
2019-03-05T00:55:14.966Z,0
2019-03-05T00:55:55.556Z,0
2019-03-05T00:56:36.293Z,0
2019-03-05T00:57:16.869Z,0
2019-03-05T00:57:57.439Z,0
2019-03-05T00:58:37.991Z,0
2019-03-05T00:59:18.571Z,0
2019-03-05T00:59:59.149Z,0
2019-03-05T01:00:39.729Z,0
2019-03-05T01:01:20.295Z,0
2019-03-05T01:02:00.848Z,0
2019-03-05T01:02:41.431Z,0
2019-03-05T01:03:21.998Z,0
2019-03-05T01:04:02.578Z,0
2019-03-05T01:04:43.124Z,0
2019-03-05T01:05:23.702Z,0
2019-03-05T01:06:04.295Z,0
2019-03-05T01:06:44.848Z,0
2019-03-05T01:07:25.401Z,0
2019-03-05T01:08:05.943Z,0
2019-03-05T01:08:46.500Z,0
2019-03-05T01:09:27.083Z,0
2019-03-05T01:10:07.650Z,0
2019-03-05T01:10:48.207Z,0
2019-03-05T01:11:28.790Z,0
2019-03-05T01:12:09.399Z,0
2019-03-05T01:12:49.961Z,0
2019-03-05T01:13:30.525Z,0
2019-03-05T01:14:11.089Z,0
2019-03-05T01:14:51.671Z,0
2019-03-05T01:15:32.208Z,0
2019-03-05T01:16:12.783Z,0
2019-03-05T01:16:53.386Z,0
2019-03-05T01:17:34.823Z,0
2019-03-05T01:18:15.419Z,0
2019-03-05T01:18:55.978Z,0
2019-03-05T01:19:36.543Z,0
2019-03-05T01:20:17.091Z,0
2019-03-05T01:20:57.702Z,0
2019-03-05T01:21:38.252Z,0
2019-03-05T01:22:18.836Z,0
2019-03-05T01:22:59.428Z,0
2019-03-05T01:23:40.001Z,0
2019-03-05T01:24:20.574Z,0
2019-03-05T01:25:01.130Z,0
2019-03-05T01:25:41.709Z,0
2019-03-05T01:26:22.251Z,0
2019-03-05T01:27:02.843Z,0
2019-03-05T01:27:43.434Z,0
2019-03-05T01:28:24.010Z,0
2019-03-05T01:29:04.557Z,0
2019-03-05T01:29:45.116Z,0
2019-03-05T01:30:25.656Z,0
2019-03-05T01:31:06.211Z,0
2019-03-05T01:31:46.761Z,0
2019-03-05T01:32:27.309Z,0
2019-03-05T01:33:07.909Z,0
2019-03-05T01:33:48.441Z,0
2019-03-05T01:34:29.023Z,0
2019-03-05T01:35:09.574Z,0
2019-03-05T01:35:50.148Z,0
2019-03-05T01:36:30.714Z,0
2019-03-05T01:37:11.300Z,0
2019-03-05T01:37:51.904Z,0
2019-03-05T01:38:32.465Z,0
2019-03-05T01:39:13.031Z,0
2019-03-05T01:39:53.575Z,0
2019-03-05T01:40:34.133Z,0
2019-03-05T01:41:14.734Z,0
2019-03-05T01:41:55.298Z,0
2019-03-05T01:42:35.854Z,0
2019-03-05T01:43:16.407Z,0
2019-03-05T01:43:56.988Z,0
2019-03-05T01:44:37.586Z,0
2019-03-05T01:45:18.136Z,0
2019-03-05T01:45:58.708Z,0
2019-03-05T01:46:39.258Z,0
2019-03-05T01:47:19.831Z,0
2019-03-05T01:48:00.380Z,0
2019-03-05T01:48:40.964Z,0
2019-03-05T01:49:21.517Z,0
2019-03-05T01:50:02.066Z,0
2019-03-05T01:50:42.624Z,0
2019-03-05T01:51:23.185Z,0
2019-03-05T01:52:03.747Z,0
2019-03-05T01:52:44.298Z,0
2019-03-05T01:53:24.895Z,0
2019-03-05T01:54:05.440Z,0
2019-03-05T01:54:46.028Z,0
2019-03-05T01:55:26.573Z,0
2019-03-05T01:56:07.173Z,0
2019-03-05T01:56:47.731Z,0
2019-03-05T01:57:28.305Z,0
2019-03-05T01:58:08.886Z,0
2019-03-05T01:58:49.464Z,0
2019-03-05T01:59:30.099Z,0
2019-03-05T02:00:11.761Z,0
2019-03-05T02:00:51.201Z,0
2019-03-05T02:01:31.785Z,0
2019-03-05T02:02:12.355Z,0
2019-03-05T02:02:52.927Z,0
2019-03-05T02:03:33.499Z,0
2019-03-05T02:04:14.063Z,0
2019-03-05T02:04:55.070Z,0
2019-03-05T02:05:35.644Z,0
2019-03-05T02:06:16.206Z,0
2019-03-05T02:06:56.802Z,0
2019-03-05T02:07:37.367Z,0
2019-03-05T02:08:17.920Z,0
2019-03-05T02:08:58.511Z,0
2019-03-05T02:09:39.073Z,0
2019-03-05T02:10:19.657Z,0
2019-03-05T02:11:00.221Z,0
2019-03-05T02:11:40.773Z,0
2019-03-05T02:12:21.342Z,0
2019-03-05T02:13:01.917Z,0
2019-03-05T02:13:42.488Z,0
2019-03-05T02:14:23.061Z,0
2019-03-05T02:15:03.632Z,0
2019-03-05T02:15:44.183Z,0
2019-03-05T02:16:24.745Z,0
2019-03-05T02:17:05.284Z,0
2019-03-05T02:17:45.846Z,0
2019-03-05T02:18:26.398Z,0
2019-03-05T02:19:06.979Z,0
2019-03-05T02:19:47.573Z,0
2019-03-05T02:20:28.113Z,0
2019-03-05T02:21:08.697Z,0
2019-03-05T02:21:49.269Z,0
2019-03-05T02:22:29.876Z,0
2019-03-05T02:23:10.438Z,0
2019-03-05T02:23:50.997Z,0
2019-03-05T02:24:31.563Z,0
2019-03-05T02:25:12.136Z,0
2019-03-05T02:25:52.738Z,0
2019-03-05T02:26:33.337Z,0
2019-03-05T02:27:13.925Z,0
2019-03-05T02:27:54.481Z,0
2019-03-05T02:28:35.039Z,0
2019-03-05T02:29:15.604Z,0
2019-03-05T02:29:56.172Z,0
2019-03-05T02:30:36.758Z,0
2019-03-05T02:31:17.323Z,0
2019-03-05T02:31:57.890Z,0
2019-03-05T02:32:38.451Z,0
2019-03-05T02:33:19.009Z,0
2019-03-05T02:33:59.610Z,0
2019-03-05T02:34:40.170Z,0
2019-03-05T02:35:20.727Z,0
2019-03-05T02:36:01.284Z,0
2019-03-05T02:36:41.862Z,0
2019-03-05T02:37:22.415Z,0
2019-03-05T02:38:05.580Z,0
2019-03-05T02:38:43.554Z,0
2019-03-05T02:39:24.144Z,0
2019-03-05T02:40:04.717Z,0
2019-03-05T02:40:45.269Z,0
2019-03-05T02:41:25.833Z,0
2019-03-05T02:42:06.411Z,0
2019-03-05T02:42:46.985Z,0
2019-03-05T02:43:27.554Z,0
2019-03-05T02:44:08.118Z,0
2019-03-05T02:44:48.704Z,0
2019-03-05T02:45:31.511Z,0
2019-03-05T02:46:09.835Z,0
2019-03-05T02:46:50.395Z,0
2019-03-05T02:47:30.965Z,0
2019-03-05T02:48:11.546Z,0
2019-03-05T02:48:52.182Z,0
2019-03-05T02:49:32.764Z,0
2019-03-05T02:50:13.331Z,0
2019-03-05T02:50:53.921Z,0
2019-03-05T02:51:34.516Z,0
2019-03-05T02:52:15.128Z,0
2019-03-05T02:52:55.707Z,0
2019-03-05T02:53:36.298Z,0
2019-03-05T02:54:16.863Z,0
2019-03-05T02:54:57.442Z,0
2019-03-05T02:55:38.049Z,0
2019-03-05T02:56:18.634Z,0
2019-03-05T02:56:59.207Z,0
2019-03-05T02:57:39.771Z,0
2019-03-05T02:58:20.397Z,0
2019-03-05T02:59:00.943Z,0
2019-03-05T02:59:41.499Z,0
2019-03-05T03:00:22.095Z,0
2019-03-05T03:01:02.658Z,0
2019-03-05T03:01:43.235Z,0
2019-03-05T03:02:23.809Z,0
2019-03-05T03:03:04.369Z,0
2019-03-05T03:03:44.947Z,0
2019-03-05T03:04:25.502Z,0
2019-03-05T03:05:06.186Z,0
2019-03-05T03:05:46.760Z,0
2019-03-05T03:06:27.318Z,0
2019-03-05T03:07:07.868Z,0
2019-03-05T03:07:48.429Z,0
2019-03-05T03:08:28.988Z,0
2019-03-05T03:09:09.564Z,0
2019-03-05T03:09:50.126Z,0
2019-03-05T03:10:30.727Z,0
2019-03-05T03:11:11.314Z,0
2019-03-05T03:11:51.857Z,0
2019-03-05T03:12:32.420Z,0
2019-03-05T03:13:13.003Z,0
2019-03-05T03:13:53.583Z,0
2019-03-05T03:14:34.183Z,0
2019-03-05T03:15:14.765Z,0
2019-03-05T03:15:55.332Z,0
2019-03-05T03:16:35.902Z,0
2019-03-05T03:17:16.505Z,0
2019-03-05T03:17:57.071Z,0
2019-03-05T03:18:37.693Z,0
2019-03-05T03:19:18.279Z,0
2019-03-05T03:19:58.870Z,0
2019-03-05T03:20:39.429Z,0
2019-03-05T03:21:20.016Z,0
2019-03-05T03:22:00.586Z,0
2019-03-05T03:22:41.183Z,0
2019-03-05T03:23:21.805Z,0
2019-03-05T03:24:02.342Z,0
2019-03-05T03:24:42.925Z,0
2019-03-05T03:25:23.486Z,0
2019-03-05T03:26:04.040Z,0
2019-03-05T03:26:44.622Z,0
2019-03-05T03:27:25.186Z,0
2019-03-05T03:28:05.748Z,0
2019-03-05T03:28:46.342Z,0
2019-03-05T03:29:26.901Z,0
2019-03-05T03:30:07.473Z,0
2019-03-05T03:30:48.003Z,0
2019-03-05T03:31:28.593Z,0
2019-03-05T03:32:09.159Z,0
2019-03-05T03:32:49.740Z,0
2019-03-05T03:33:30.310Z,0
2019-03-05T03:34:10.876Z,0
2019-03-05T03:34:51.415Z,0
2019-03-05T03:35:31.982Z,0
2019-03-05T03:36:12.542Z,0
2019-03-05T03:36:53.108Z,0
2019-03-05T03:37:33.674Z,0
2019-03-05T03:38:14.284Z,0
2019-03-05T03:38:54.843Z,0
2019-03-05T03:39:35.421Z,0
2019-03-05T03:40:15.985Z,0
2019-03-05T03:40:56.557Z,0
2019-03-05T03:41:37.151Z,0
2019-03-05T03:42:17.718Z,0
2019-03-05T03:42:58.287Z,0
2019-03-05T03:43:38.843Z,0
2019-03-05T03:44:19.437Z,0
2019-03-05T03:44:59.963Z,0
2019-03-05T03:45:40.564Z,0
2019-03-05T03:46:21.142Z,0
2019-03-05T03:47:01.741Z,0
2019-03-05T03:47:42.400Z,0
2019-03-05T03:48:22.873Z,0
2019-03-05T03:49:03.463Z,0
2019-03-05T03:49:44.035Z,0
2019-03-05T03:50:24.605Z,0
2019-03-05T03:51:05.196Z,0
2019-03-05T03:51:45.777Z,0
2019-03-05T03:52:26.386Z,0
2019-03-05T03:53:07.007Z,0
2019-03-05T03:53:47.591Z,0
2019-03-05T03:54:28.179Z,0
2019-03-05T03:55:08.771Z,0
2019-03-05T03:55:49.327Z,0
2019-03-05T03:56:29.898Z,0
2019-03-05T03:57:10.463Z,0
2019-03-05T03:57:51.035Z,0
2019-03-05T03:58:31.597Z,0
2019-03-05T03:59:12.167Z,0
2019-03-05T03:59:52.732Z,0
2019-03-05T04:00:33.287Z,0
2019-03-05T04:01:13.885Z,0
2019-03-05T04:01:54.454Z,0
2019-03-05T04:02:35.010Z,0
2019-03-05T04:03:15.566Z,0
2019-03-05T04:03:56.136Z,0
2019-03-05T04:04:36.695Z,0
2019-03-05T04:05:17.262Z,0
2019-03-05T04:05:57.821Z,0
2019-03-05T04:06:38.370Z,0
2019-03-05T04:07:18.930Z,0
2019-03-05T04:07:59.536Z,0
2019-03-05T04:08:40.100Z,0
2019-03-05T04:09:20.657Z,0
2019-03-05T04:10:01.216Z,0
2019-03-05T04:10:41.770Z,0
2019-03-05T04:11:22.333Z,0
2019-03-05T04:12:02.947Z,0
2019-03-05T04:12:43.537Z,0
2019-03-05T04:13:24.094Z,0
2019-03-05T04:14:04.706Z,0
2019-03-05T04:14:45.250Z,0
2019-03-05T04:15:25.805Z,0
2019-03-05T04:16:06.379Z,0
2019-03-05T04:16:46.946Z,0
2019-03-05T04:17:27.517Z,0
2019-03-05T04:18:08.087Z,0
2019-03-05T04:18:48.656Z,0
2019-03-05T04:19:29.231Z,0
2019-03-05T04:20:09.795Z,0
2019-03-05T04:20:50.425Z,0
2019-03-05T04:21:30.948Z,0
2019-03-05T04:22:11.496Z,0
2019-03-05T04:22:52.039Z,0
2019-03-05T04:23:32.591Z,0
2019-03-05T04:24:13.194Z,0
2019-03-05T04:24:53.769Z,0
2019-03-05T04:25:34.336Z,0
2019-03-05T04:26:14.926Z,0
2019-03-05T04:26:55.486Z,0
2019-03-05T04:27:36.066Z,0
2019-03-05T04:28:16.639Z,0
2019-03-05T04:28:57.232Z,0
2019-03-05T04:29:37.805Z,0
2019-03-05T04:30:18.377Z,0
2019-03-05T04:30:58.930Z,0
2019-03-05T04:31:39.486Z,0
2019-03-05T04:32:20.053Z,0
2019-03-05T04:33:00.604Z,0
2019-03-05T04:33:41.204Z,0
2019-03-05T04:34:21.780Z,0
2019-03-05T04:35:02.356Z,0
2019-03-05T04:35:42.972Z,0
2019-03-05T04:36:23.538Z,0
2019-03-05T04:37:04.105Z,0
2019-03-05T04:37:44.658Z,0
2019-03-05T04:38:25.244Z,0
2019-03-05T04:39:05.798Z,0
2019-03-05T04:39:46.362Z,0
2019-03-05T04:40:26.919Z,0
2019-03-05T04:41:07.495Z,0
2019-03-05T04:41:48.067Z,0
2019-03-05T04:42:28.618Z,0
2019-03-05T04:43:09.204Z,0
2019-03-05T04:43:49.772Z,0
2019-03-05T04:44:30.350Z,0
2019-03-05T04:45:10.933Z,0
2019-03-05T04:45:51.475Z,0
2019-03-05T04:46:32.055Z,0
2019-03-05T04:47:12.616Z,0
2019-03-05T04:47:53.178Z,0
2019-03-05T04:48:33.739Z,0
2019-03-05T04:49:14.290Z,0
2019-03-05T04:49:54.889Z,0
2019-03-05T04:50:35.433Z,0
2019-03-05T04:51:16.000Z,0
2019-03-05T04:51:56.564Z,0
2019-03-05T04:52:37.130Z,0
2019-03-05T04:53:17.708Z,0
2019-03-05T04:53:58.256Z,0
2019-03-05T04:54:38.827Z,0
2019-03-05T04:55:19.439Z,0
2019-03-05T04:56:00.002Z,0
2019-03-05T04:56:40.588Z,0
2019-03-05T04:57:21.154Z,0
2019-03-05T04:58:01.752Z,0
2019-03-05T04:58:42.293Z,0
2019-03-05T04:59:22.864Z,0
2019-03-05T05:00:03.434Z,0
2019-03-05T05:00:43.990Z,0
2019-03-05T05:01:24.562Z,0
2019-03-05T05:02:05.133Z,0
2019-03-05T05:02:45.686Z,0
2019-03-05T05:03:26.260Z,0
2019-03-05T05:04:06.838Z,0
2019-03-05T05:04:47.398Z,0
2019-03-05T05:05:27.983Z,0
2019-03-05T05:06:08.555Z,0
2019-03-05T05:06:49.221Z,0
2019-03-05T05:07:29.790Z,0
2019-03-05T05:08:10.325Z,0
2019-03-05T05:08:50.884Z,0
2019-03-05T05:09:31.469Z,0
2019-03-05T05:10:12.063Z,0
2019-03-05T05:10:52.654Z,0
2019-03-05T05:11:33.227Z,0
2019-03-05T05:12:13.796Z,0
2019-03-05T05:12:54.390Z,0
2019-03-05T05:13:34.965Z,0
2019-03-05T05:14:15.548Z,0
2019-03-05T05:14:56.106Z,0
2019-03-05T05:15:36.690Z,0
2019-03-05T05:16:17.274Z,0
2019-03-05T05:16:57.838Z,0
2019-03-05T05:17:38.411Z,0
2019-03-05T05:18:18.995Z,0
2019-03-05T05:18:59.568Z,0
2019-03-05T05:19:40.163Z,0
2019-03-05T05:20:20.670Z,0
2019-03-05T05:21:01.223Z,0
2019-03-05T05:21:41.829Z,0
2019-03-05T05:22:22.407Z,0
2019-03-05T05:23:02.965Z,0
2019-03-05T05:23:43.511Z,0
2019-03-05T05:24:24.075Z,0
2019-03-05T05:25:04.664Z,4
2019-03-05T05:25:45.257Z,4
2019-03-05T05:26:25.803Z,4
2019-03-05T05:27:06.367Z,0
2019-03-05T05:27:46.946Z,0
2019-03-05T05:28:27.524Z,4
2019-03-05T05:29:08.093Z,4
2019-03-05T05:29:48.669Z,0
2019-03-05T05:30:29.229Z,4
2019-03-05T05:31:09.820Z,4
2019-03-05T05:31:50.364Z,8
2019-03-05T05:32:30.931Z,4
2019-03-05T05:33:11.483Z,8
2019-03-05T05:33:52.039Z,8
2019-03-05T05:34:32.613Z,8
2019-03-05T05:35:13.169Z,12
2019-03-05T05:35:53.727Z,8
2019-03-05T05:36:34.334Z,12
2019-03-05T05:37:14.972Z,12
2019-03-05T05:37:55.583Z,12
2019-03-05T05:38:36.158Z,12
2019-03-05T05:39:16.713Z,12
2019-03-05T05:39:57.265Z,12
2019-03-05T05:40:37.838Z,12
2019-03-05T05:41:18.418Z,16
2019-03-05T05:41:58.973Z,16
2019-03-05T05:42:39.553Z,20
2019-03-05T05:43:20.125Z,20
2019-03-05T05:44:01.530Z,20
2019-03-05T05:44:42.113Z,20
2019-03-05T05:45:22.667Z,24
2019-03-05T05:46:03.249Z,24
2019-03-05T05:46:44.498Z,24
2019-03-05T05:47:25.640Z,28
2019-03-05T05:48:06.779Z,32
2019-03-05T05:48:47.871Z,32
2019-03-05T05:49:28.830Z,36
2019-03-05T05:50:09.797Z,40
2019-03-05T05:50:50.495Z,40
2019-03-05T05:51:31.115Z,44
2019-03-05T05:52:11.797Z,48
2019-03-05T05:52:52.704Z,52
2019-03-05T05:53:33.345Z,56
2019-03-05T05:54:13.903Z,60
2019-03-05T05:54:54.772Z,60
2019-03-05T05:55:35.723Z,68
2019-03-05T05:56:16.298Z,72
2019-03-05T05:56:57.025Z,76
2019-03-05T05:57:37.596Z,76
2019-03-05T05:58:18.259Z,80
2019-03-05T05:58:59.329Z,84
2019-03-05T05:59:40.247Z,84
2019-03-05T06:00:20.994Z,88
2019-03-05T06:01:01.607Z,96
2019-03-05T06:01:42.172Z,104
2019-03-05T06:02:22.833Z,116
2019-03-05T06:03:03.359Z,124
2019-03-05T06:03:43.967Z,120
2019-03-05T06:04:24.535Z,132
2019-03-05T06:05:05.137Z,140
2019-03-05T06:05:45.762Z,156
2019-03-05T06:06:26.309Z,144
2019-03-05T06:07:07.109Z,156
2019-03-05T06:07:47.777Z,164
2019-03-05T06:08:28.385Z,176
2019-03-05T06:09:09.086Z,184
2019-03-05T06:09:49.649Z,192
2019-03-05T06:10:30.226Z,208
2019-03-05T06:11:10.768Z,224
2019-03-05T06:11:51.366Z,240
2019-03-05T06:12:31.915Z,256
2019-03-05T06:13:12.478Z,272
2019-03-05T06:13:53.092Z,284
2019-03-05T06:14:33.643Z,292
2019-03-05T06:15:14.255Z,272
2019-03-05T06:15:54.840Z,276
2019-03-05T06:16:35.445Z,304
2019-03-05T06:17:16.033Z,332
2019-03-05T06:17:56.579Z,348
2019-03-05T06:18:37.134Z,368
2019-03-05T06:19:17.729Z,384
2019-03-05T06:19:58.289Z,396
2019-03-05T06:20:38.857Z,420
2019-03-05T06:21:19.468Z,416
2019-03-05T06:22:00.047Z,428
2019-03-05T06:22:40.630Z,440
2019-03-05T06:23:21.263Z,452
2019-03-05T06:24:01.897Z,444
2019-03-05T06:24:42.468Z,436
2019-03-05T06:25:23.171Z,428
2019-03-05T06:26:03.748Z,452
2019-03-05T06:26:44.331Z,500
2019-03-05T06:27:25.016Z,532
2019-03-05T06:28:05.612Z,544
2019-03-05T06:28:46.131Z,576
2019-03-05T06:29:26.752Z,620
2019-03-05T06:30:07.351Z,648
2019-03-05T06:30:47.922Z,668
2019-03-05T06:31:28.502Z,688
2019-03-05T06:32:09.062Z,704
2019-03-05T06:32:49.645Z,720
2019-03-05T06:33:30.251Z,728
2019-03-05T06:34:10.804Z,736
2019-03-05T06:34:51.373Z,752
2019-03-05T06:35:31.964Z,792
2019-03-05T06:36:12.525Z,836
2019-03-05T06:36:53.109Z,832
2019-03-05T06:37:33.712Z,792
2019-03-05T06:38:14.305Z,844
2019-03-05T06:38:54.932Z,904
2019-03-05T06:39:35.488Z,944
2019-03-05T06:40:16.100Z,960
2019-03-05T06:40:56.692Z,972
2019-03-05T06:41:37.255Z,1004
2019-03-05T06:42:17.825Z,1008
2019-03-05T06:42:58.460Z,976
2019-03-05T06:43:39.028Z,1060
2019-03-05T06:44:19.644Z,1116
2019-03-05T06:45:00.207Z,1100
2019-03-05T06:45:40.761Z,1176
2019-03-05T06:46:21.398Z,1192
2019-03-05T06:47:01.961Z,1072
2019-03-05T06:47:42.530Z,1252
2019-03-05T06:48:23.162Z,1384
2019-03-05T06:49:03.654Z,1552
2019-03-05T06:49:44.250Z,1728
2019-03-05T06:50:24.821Z,1808
2019-03-05T06:51:05.416Z,1804
2019-03-05T06:51:45.962Z,1864
2019-03-05T06:52:26.549Z,2072
2019-03-05T06:53:07.172Z,2168
2019-03-05T06:53:47.778Z,2364
2019-03-05T06:54:28.353Z,2528
2019-03-05T06:55:08.926Z,2652
2019-03-05T06:55:49.497Z,2776
2019-03-05T06:56:30.176Z,2948
2019-03-05T06:57:10.758Z,2952
2019-03-05T06:57:51.348Z,3044
2019-03-05T06:58:32.014Z,3144
2019-03-05T06:59:12.565Z,3220
2019-03-05T06:59:53.121Z,3364
2019-03-05T07:00:33.696Z,3460
2019-03-05T07:01:14.262Z,3392
2019-03-05T07:01:54.823Z,3280
2019-03-05T07:02:35.446Z,3392
2019-03-05T07:03:16.012Z,3508
2019-03-05T07:03:56.600Z,3496
2019-03-05T07:04:37.200Z,3500
2019-03-05T07:05:18.201Z,3436
2019-03-05T07:05:58.758Z,3636
2019-03-05T07:06:39.387Z,3676
2019-03-05T07:07:19.942Z,3804
2019-03-05T07:08:00.527Z,3700
2019-03-05T07:08:41.062Z,3864
2019-03-05T07:09:21.664Z,4008
2019-03-05T07:10:02.261Z,4136
2019-03-05T07:10:42.892Z,4180
2019-03-05T07:11:23.443Z,4212
2019-03-05T07:12:04.001Z,4276
2019-03-05T07:12:44.587Z,4304
2019-03-05T07:13:25.185Z,4392
2019-03-05T07:14:05.785Z,4416
2019-03-05T07:14:46.326Z,4544
2019-03-05T07:15:26.934Z,4664
2019-03-05T07:16:07.507Z,4660
2019-03-05T07:16:48.140Z,4720
2019-03-05T07:17:28.702Z,4740
2019-03-05T07:18:09.287Z,4904
2019-03-05T07:18:49.870Z,5056
2019-03-05T07:19:30.423Z,5224
2019-03-05T07:20:10.983Z,5336
2019-03-05T07:20:51.632Z,5400
2019-03-05T07:21:32.169Z,5580
2019-03-05T07:22:12.760Z,6000
2019-03-05T07:22:53.348Z,6176
2019-03-05T07:23:33.900Z,6396
2019-03-05T07:24:14.545Z,6148
2019-03-05T07:24:55.077Z,6112
2019-03-05T07:25:36.121Z,6516
2019-03-05T07:26:16.684Z,7440
2019-03-05T07:26:57.250Z,6448
2019-03-05T07:27:37.814Z,6696
2019-03-05T07:28:18.397Z,7072
2019-03-05T07:28:58.970Z,7044
2019-03-05T07:29:39.533Z,7748
2019-03-05T07:30:20.098Z,7884
2019-03-05T07:31:00.641Z,7664
2019-03-05T07:31:41.243Z,7868
2019-03-05T07:32:21.808Z,7488
2019-03-05T07:33:02.395Z,6716
2019-03-05T07:33:43.003Z,5132
2019-03-05T07:34:23.596Z,6232
2019-03-05T07:35:04.146Z,6812
2019-03-05T07:35:44.701Z,7368
2019-03-05T07:36:25.280Z,8132
2019-03-05T07:37:05.877Z,19264
2019-03-05T07:37:46.441Z,39840
2019-03-05T07:38:27.002Z,43680
2019-03-05T07:39:07.848Z,31136
2019-03-05T07:39:48.313Z,9388
2019-03-05T07:40:28.991Z,18144
2019-03-05T07:41:09.567Z,26016
2019-03-05T07:41:50.517Z,19008
2019-03-05T07:42:31.108Z,5428
2019-03-05T07:43:11.667Z,5444
2019-03-05T07:43:52.244Z,6344
2019-03-05T07:44:32.816Z,6688
2019-03-05T07:45:13.405Z,9224
2019-03-05T07:45:53.946Z,8588
2019-03-05T07:46:34.625Z,6368
2019-03-05T07:47:15.213Z,10968
2019-03-05T07:47:55.827Z,60416
2019-03-05T07:48:36.353Z,56864
2019-03-05T07:49:16.928Z,22784
2019-03-05T07:49:57.508Z,58496
2019-03-05T07:50:38.192Z,50304
2019-03-05T07:51:18.861Z,8396
2019-03-05T07:51:59.413Z,7496
2019-03-05T07:52:40.004Z,5988
2019-03-05T07:53:20.567Z,4104
2019-03-05T07:54:01.120Z,3780
2019-03-05T07:54:41.719Z,4224
2019-03-05T07:55:22.324Z,4536
2019-03-05T07:56:02.884Z,8628
2019-03-05T07:56:43.459Z,9272
2019-03-05T07:57:23.995Z,58432
2019-03-05T07:58:04.582Z,9544
2019-03-05T07:58:45.167Z,5712
2019-03-05T07:59:25.735Z,5912
2019-03-05T08:00:06.305Z,6444
2019-03-05T08:00:46.877Z,4108
2019-03-05T08:01:30.667Z,5752
2019-03-05T08:02:11.794Z,9352
2019-03-05T08:02:52.366Z,41344
2019-03-05T08:03:32.989Z,7976
2019-03-05T08:04:13.559Z,9300
2019-03-05T08:04:54.111Z,6320
2019-03-05T08:05:34.766Z,5776
2019-03-05T08:06:15.334Z,14204
2019-03-05T08:06:55.935Z,6336
2019-03-05T08:07:36.508Z,5320
2019-03-05T08:08:26.291Z,4384
2019-03-05T08:08:57.645Z,3492
2019-03-05T08:09:38.216Z,4148
2019-03-05T08:10:18.796Z,2976
2019-03-05T08:10:59.468Z,2932
2019-03-05T08:11:40.103Z,3736
2019-03-05T08:12:20.705Z,5312
2019-03-05T08:13:01.363Z,5408
2019-03-05T08:13:41.921Z,4620
2019-03-05T08:14:22.725Z,3632
2019-03-05T08:15:03.285Z,60064
2019-03-05T08:15:43.862Z,3732
2019-03-05T08:16:24.414Z,4940
2019-03-05T08:17:04.974Z,3960
2019-03-05T08:17:46.974Z,5748
2019-03-05T08:18:26.095Z,2980
2019-03-05T08:19:06.721Z,2284
2019-03-05T08:19:47.291Z,2524
2019-03-05T08:20:27.922Z,2560
2019-03-05T08:21:08.499Z,2044
2019-03-05T08:21:49.101Z,1932
2019-03-05T08:22:29.723Z,2032
2019-03-05T08:23:10.314Z,1860
2019-03-05T08:23:50.996Z,2100
2019-03-05T08:24:31.871Z,2188
2019-03-05T08:25:12.473Z,1944
2019-03-05T08:25:53.040Z,1920
2019-03-05T08:26:33.680Z,2284
2019-03-05T08:27:14.251Z,2068
2019-03-05T08:27:54.820Z,2088
2019-03-05T08:28:35.373Z,2272
2019-03-05T08:29:15.944Z,2388
2019-03-05T08:29:56.498Z,2288
2019-03-05T08:30:37.077Z,2636
2019-03-05T08:31:17.643Z,2864
2019-03-05T08:31:58.193Z,2432
2019-03-05T08:32:38.772Z,1736
2019-03-05T08:33:19.312Z,1632
2019-03-05T08:33:59.915Z,1480
2019-03-05T08:34:40.464Z,1324
2019-03-05T08:35:21.145Z,1364
2019-03-05T08:36:01.714Z,1460
2019-03-05T08:36:42.285Z,1360
2019-03-05T08:37:22.841Z,1364
2019-03-05T08:38:03.403Z,1440
2019-03-05T08:38:43.955Z,1344
2019-03-05T08:39:24.521Z,1268
2019-03-05T08:40:05.114Z,1600
2019-03-05T08:40:45.690Z,2140
2019-03-05T08:41:26.297Z,2656
2019-03-05T08:42:06.849Z,2772
2019-03-05T08:42:47.433Z,3388
2019-03-05T08:43:28.035Z,9672
2019-03-05T08:44:08.731Z,8812
2019-03-05T08:44:50.587Z,7092
2019-03-05T08:45:29.949Z,6964
2019-03-05T08:46:10.425Z,7336
2019-03-05T08:46:51.115Z,19424
2019-03-05T08:47:31.703Z,8380
2019-03-05T08:48:12.262Z,11604
2019-03-05T08:48:52.812Z,8456
2019-03-05T08:49:33.442Z,10956
2019-03-05T08:50:13.982Z,7884
2019-03-05T08:50:54.607Z,16000
2019-03-05T08:51:35.265Z,8712
2019-03-05T08:52:15.818Z,7420
2019-03-05T08:52:56.422Z,6928
2019-03-05T08:53:36.981Z,7316
2019-03-05T08:54:17.674Z,22752
2019-03-05T08:54:58.277Z,8504
2019-03-05T08:55:39.364Z,6672
2019-03-05T08:56:19.937Z,5392
2019-03-05T08:57:00.507Z,4660
2019-03-05T08:57:41.096Z,4340
2019-03-05T08:58:21.779Z,3576
2019-03-05T08:59:02.300Z,3068
2019-03-05T08:59:42.879Z,2836
2019-03-05T09:00:23.504Z,2876
2019-03-05T09:01:04.225Z,3268
2019-03-05T09:01:44.836Z,3652
2019-03-05T09:02:25.410Z,4720
2019-03-05T09:03:06.044Z,5780
2019-03-05T09:03:46.597Z,6068
2019-03-05T09:04:27.169Z,5864
2019-03-05T09:05:08.179Z,5292
2019-03-05T09:05:48.728Z,9656
2019-03-05T09:06:29.292Z,6680
2019-03-05T09:07:09.844Z,6488
2019-03-05T09:07:50.439Z,6516
2019-03-05T09:08:31.009Z,9268
2019-03-05T09:09:11.583Z,9676
2019-03-05T09:09:52.146Z,7832
2019-03-05T09:10:32.728Z,8284
2019-03-05T09:11:13.294Z,6620
2019-03-05T09:11:53.872Z,5632
2019-03-05T09:12:34.447Z,5868
2019-03-05T09:13:15.022Z,6928
2019-03-05T09:13:55.624Z,6984
2019-03-05T09:14:36.193Z,5044
2019-03-05T09:15:16.750Z,7560
2019-03-05T09:15:57.337Z,6952
2019-03-05T09:16:37.927Z,7028
2019-03-05T09:17:18.487Z,5696
2019-03-05T09:17:59.093Z,7212
2019-03-05T09:18:39.684Z,7548
2019-03-05T09:19:20.248Z,7052
2019-03-05T09:20:00.847Z,6636
2019-03-05T09:20:41.408Z,5820
2019-03-05T09:21:23.005Z,5316
2019-03-05T09:22:04.019Z,5372
2019-03-05T09:22:44.489Z,5804
2019-03-05T09:23:25.096Z,5888
2019-03-05T09:24:05.677Z,6204
2019-03-05T09:24:46.552Z,7564
2019-03-05T09:25:27.268Z,8216
2019-03-05T09:26:07.912Z,7096
2019-03-05T09:26:51.360Z,6384
2019-03-05T09:27:30.318Z,5968
2019-03-05T09:28:10.966Z,4748
2019-03-05T09:28:51.634Z,4736
2019-03-05T09:29:32.257Z,4756
2019-03-05T09:30:15.640Z,5248
2019-03-05T09:30:56.239Z,5596
2019-03-05T09:31:36.814Z,5716
2019-03-05T09:32:17.432Z,5664
2019-03-05T09:32:58.140Z,5400
2019-03-05T09:33:38.843Z,4168
2019-03-05T09:34:19.468Z,3868
2019-03-05T09:35:00.359Z,4892
2019-03-05T09:35:41.522Z,5224
2019-03-05T09:36:21.960Z,4460